Ambler, Alaska
Current Conditions -  °F | °C
As of 4:16 AM on Thursday 27 Nov 2014 (Local Time) from PAFM Reporting Station
Clear Clear  
Wind Chill:   Ceiling: Unl
Heat Index: 10°   Visibility: 10mi
Dew Point:   Wind: 5mph
Humidity: 67%   Direction: 60°ENE
Pressure: 30.42"   Gusts: NA
Location:  67.09°N, 157.85°W
Report Text: PAFM 271316Z AUTO 06004KT 10SM CLR M12/M17 A3042 RMK AO1
Loading
Personal Weather Stations






























Interactive Weather Map New forecast layout! Learn more

10-Day Weather Forecast

Advertisements
Track Severe Weather on mobile